Bassfield, Mississippi
Current Conditions -  °F | °C
As of 6:55 AM on Friday 31 Oct 2014 (Local Time) from KPIB Reporting Station
Few Clouds Few Clouds  
Wind Chill: 45°   Ceiling: Unl
Heat Index: 45°   Visibility: 10mi
Dew Point: 41°   Wind: 3mph
Humidity: 87%   Direction: 260°W
Pressure: 30.03"   Gusts: NA
Location:  31.5°N, 89.74°W
Report Text: KPIB 311155Z AUTO 26003KT 10SM FEW080 07/05 A3003 RMK AO1 10080 20060 54000
Loading
Personal Weather Stations






























Interactive Weather Map
Tropical Storm Tracking
New forecast layout! Learn more

10-Day Weather Forecast

Advertisements
Track Severe Weather on mobile